createdAt,value
2022-08-02T00:00:14.271Z,15.90
2022-08-02T00:02:41.939Z,15.84
2022-08-02T00:05:09.311Z,15.83
2022-08-02T00:07:40.645Z,15.82
2022-08-02T00:10:09.922Z,15.78
2022-08-02T00:12:36.737Z,15.76
2022-08-02T00:15:04.047Z,15.78
2022-08-02T00:17:30.527Z,15.82
2022-08-02T00:19:56.915Z,15.81
2022-08-02T00:22:23.305Z,15.80
2022-08-02T00:24:49.727Z,15.79
2022-08-02T00:27:16.125Z,15.76
2022-08-02T00:29:52.560Z,15.75
2022-08-02T00:32:19.801Z,15.73
2022-08-02T00:34:46.409Z,15.72
2022-08-02T00:37:12.918Z,15.67
2022-08-02T00:39:39.581Z,15.65
2022-08-02T00:42:06.287Z,15.66
2022-08-02T00:44:32.669Z,15.63
2022-08-02T00:47:00.172Z,15.63
2022-08-02T00:49:26.790Z,15.61
2022-08-02T00:51:53.267Z,15.65
2022-08-02T00:54:20.677Z,15.73
2022-08-02T00:56:49.664Z,15.71
2022-08-02T00:59:18.193Z,15.70
2022-08-02T01:01:55.666Z,15.66
2022-08-02T01:04:29.700Z,15.58
2022-08-02T01:06:59.481Z,15.50
2022-08-02T01:09:25.983Z,15.50
2022-08-02T01:11:52.568Z,15.44
2022-08-02T01:14:19.545Z,15.39
2022-08-02T01:17:15.605Z,15.35
2022-08-02T01:20:05.366Z,15.37
2022-08-02T01:23:00.189Z,15.32
2022-08-02T01:25:39.535Z,15.27
2022-08-02T01:28:39.092Z,15.14
2022-08-02T01:31:21.385Z,15.34
2022-08-02T01:33:54.514Z,15.31
2022-08-02T01:36:22.065Z,15.34
2022-08-02T01:38:53.336Z,15.40
2022-08-02T01:41:22.296Z,15.32
2022-08-02T01:43:53.741Z,15.47
2022-08-02T01:46:21.539Z,15.47
2022-08-02T01:48:50.365Z,15.50
2022-08-02T01:51:19.988Z,15.46
2022-08-02T01:53:51.301Z,15.40
2022-08-02T01:56:19.657Z,15.51
2022-08-02T01:58:48.058Z,15.54
2022-08-02T02:01:18.300Z,15.59
2022-08-02T02:03:48.598Z,15.68
2022-08-02T02:06:16.043Z,15.65
2022-08-02T02:08:44.195Z,15.64
2022-08-02T02:12:09.411Z,15.58
2022-08-02T02:13:59.606Z,15.57
2022-08-02T02:16:27.421Z,15.57
2022-08-02T02:18:54.842Z,15.53
2022-08-02T02:21:21.617Z,15.52
2022-08-02T02:23:48.321Z,15.50
2022-08-02T02:26:29.503Z,15.52
2022-08-02T02:29:01.435Z,15.46
2022-08-02T02:31:32.640Z,15.45
2022-08-02T02:34:04.310Z,15.34
2022-08-02T02:36:33.337Z,15.40
2022-08-02T02:39:03.192Z,15.26
2022-08-02T02:41:29.752Z,15.37
2022-08-02T02:43:59.881Z,15.34
2022-08-02T02:46:27.243Z,15.34
2022-08-02T02:48:54.631Z,15.30
2022-08-02T02:51:22.422Z,15.31
2022-08-02T02:54:33.349Z,15.32
2022-08-02T02:56:38.908Z,15.25
2022-08-02T02:59:07.701Z,15.39
2022-08-02T03:01:55.581Z,15.35
2022-08-02T03:04:21.983Z,15.21
2022-08-02T03:06:48.527Z,15.17
2022-08-02T03:09:15.139Z,15.12
2022-08-02T03:11:41.938Z,15.14
2022-08-02T03:14:12.528Z,15.13
2022-08-02T03:16:47.010Z,15.09
2022-08-02T03:19:15.109Z,15.11
2022-08-02T03:21:42.839Z,15.16
2022-08-02T03:24:09.325Z,15.14
2022-08-02T03:26:36.099Z,15.09
2022-08-02T03:29:10.843Z,14.99
2022-08-02T03:31:40.690Z,14.98
2022-08-02T03:34:07.636Z,14.89
2022-08-02T03:36:35.101Z,14.96
2022-08-02T03:39:02.490Z,14.86
2022-08-02T03:41:29.832Z,14.88
2022-08-02T03:43:56.974Z,14.96
2022-08-02T03:46:25.212Z,14.96
2022-08-02T03:48:52.895Z,14.84
2022-08-02T03:51:20.447Z,14.75
2022-08-02T03:53:48.694Z,14.73
2022-08-02T03:56:16.231Z,14.77
2022-08-02T03:58:45.817Z,14.65
2022-08-02T04:01:15.603Z,14.66
2022-08-02T04:03:42.069Z,14.59
2022-08-02T04:06:08.715Z,14.67
2022-08-02T04:08:38.418Z,14.69
2022-08-02T04:11:24.719Z,14.66
2022-08-02T04:13:51.889Z,14.59
2022-08-02T04:16:23.447Z,14.64
2022-08-02T04:18:56.760Z,14.57
2022-08-02T04:21:48.635Z,14.71
2022-08-02T04:24:18.540Z,14.59
2022-08-02T04:26:48.852Z,14.57
2022-08-02T04:29:18.059Z,14.57
2022-08-02T04:31:45.297Z,14.55
2022-08-02T04:34:15.237Z,14.53
2022-08-02T04:36:43.010Z,14.52
2022-08-02T04:39:09.555Z,14.75
2022-08-02T04:41:44.548Z,14.79
2022-08-02T04:44:11.747Z,14.79
2022-08-02T04:46:38.865Z,14.94
2022-08-02T04:49:05.706Z,15.10
2022-08-02T04:51:43.384Z,14.95
2022-08-02T04:54:11.239Z,15.05
2022-08-02T04:56:39.347Z,15.02
2022-08-02T04:59:06.480Z,15.02
2022-08-02T05:01:33.052Z,14.86
2022-08-02T05:03:59.527Z,14.82
2022-08-02T05:06:26.345Z,14.92
2022-08-02T05:08:53.613Z,14.95
2022-08-02T05:11:34.366Z,14.96
2022-08-02T05:14:03.577Z,14.99
2022-08-02T05:16:31.462Z,15.06
2022-08-02T05:19:02.254Z,15.18
2022-08-02T05:21:29.845Z,15.22
2022-08-02T05:23:56.310Z,15.18
2022-08-02T05:26:22.813Z,15.22
2022-08-02T05:28:49.774Z,15.32
2022-08-02T05:31:16.223Z,15.32
2022-08-02T05:33:43.910Z,15.42
2022-08-02T05:36:10.322Z,15.34
2022-08-02T05:38:37.742Z,15.31
2022-08-02T05:41:05.427Z,15.29
2022-08-02T05:43:33.507Z,15.38
2022-08-02T05:46:00.354Z,15.44
2022-08-02T05:48:31.683Z,15.52
2022-08-02T05:51:36.990Z,15.55
2022-08-02T05:54:18.379Z,15.66
2022-08-02T05:57:01.839Z,15.72
2022-08-02T05:59:57.716Z,15.88
2022-08-02T06:02:30.369Z,16.02
2022-08-02T06:05:04.877Z,16.10
2022-08-02T06:07:35.482Z,16.22
2022-08-02T06:10:05.209Z,16.41
2022-08-02T06:12:33.750Z,16.51
2022-08-02T06:15:01.497Z,16.62
2022-08-02T06:17:28.246Z,16.71
2022-08-02T06:19:58.323Z,16.70
2022-08-02T06:22:32.140Z,16.78
2022-08-02T06:25:11.747Z,17.04
2022-08-02T06:27:55.671Z,17.18
2022-08-02T06:30:22.274Z,17.33
2022-08-02T06:32:51.347Z,17.22
2022-08-02T06:35:18.264Z,17.49
2022-08-02T06:37:55.590Z,17.50
2022-08-02T06:40:32.358Z,17.56
2022-08-02T06:43:19.083Z,17.63
2022-08-02T06:45:45.662Z,17.69
2022-08-02T06:48:12.202Z,17.78
2022-08-02T06:50:38.880Z,17.83
2022-08-02T06:53:07.210Z,17.84
2022-08-02T06:55:43.367Z,17.93
2022-08-02T06:58:11.687Z,18.06
2022-08-02T07:00:38.605Z,18.08
2022-08-02T07:03:05.368Z,18.17
2022-08-02T07:05:32.107Z,18.17
2022-08-02T07:07:58.603Z,18.23
2022-08-02T07:10:25.292Z,18.29
2022-08-02T07:12:51.702Z,18.35
2022-08-02T07:15:18.127Z,18.41
2022-08-02T07:17:44.619Z,18.53
2022-08-02T07:20:11.398Z,18.61
2022-08-02T07:22:37.925Z,18.72
2022-08-02T07:25:05.453Z,18.76
2022-08-02T07:27:32.195Z,18.81
2022-08-02T07:29:58.895Z,18.88
2022-08-02T07:32:29.883Z,18.90
2022-08-02T07:34:57.124Z,19.10
2022-08-02T07:37:53.630Z,19.16
2022-08-02T07:40:20.341Z,19.13
2022-08-02T07:42:49.413Z,19.17
2022-08-02T07:45:16.021Z,19.17
2022-08-02T07:47:44.546Z,19.25
2022-08-02T07:50:12.571Z,19.32
2022-08-02T07:52:43.635Z,19.35
2022-08-02T07:55:11.832Z,19.49
2022-08-02T07:57:43.955Z,19.59
2022-08-02T08:00:13.585Z,19.71
2022-08-02T08:02:40.234Z,19.80
2022-08-02T08:05:08.492Z,19.90
2022-08-02T08:07:35.231Z,19.94
2022-08-02T08:10:02.199Z,20.03
2022-08-02T08:12:28.714Z,20.04
2022-08-02T08:14:55.227Z,20.06
2022-08-02T08:17:21.638Z,20.11
2022-08-02T08:19:50.897Z,20.23
2022-08-02T08:22:21.750Z,20.31
2022-08-02T08:24:49.214Z,20.37
2022-08-02T08:27:17.028Z,20.44
2022-08-02T08:29:44.645Z,20.52
2022-08-02T08:32:16.173Z,20.56
2022-08-02T08:34:44.017Z,20.67
2022-08-02T08:37:16.786Z,20.77
2022-08-02T08:39:57.046Z,20.83
2022-08-02T08:42:29.000Z,20.86
2022-08-02T08:44:57.231Z,20.88
2022-08-02T08:47:33.885Z,20.91
2022-08-02T08:50:04.855Z,21.01
2022-08-02T08:52:36.840Z,21.01
2022-08-02T08:55:05.708Z,21.03
2022-08-02T08:57:37.782Z,21.06
2022-08-02T09:00:05.177Z,21.11
2022-08-02T09:02:34.721Z,21.17
2022-08-02T09:05:02.011Z,21.40
2022-08-02T09:07:28.688Z,21.46
2022-08-02T09:09:55.136Z,21.43
2022-08-02T09:12:25.153Z,21.41
2022-08-02T09:14:51.858Z,21.47
2022-08-02T09:17:18.620Z,21.50
2022-08-02T09:19:47.822Z,21.53
2022-08-02T09:22:15.989Z,21.59
2022-08-02T09:24:48.279Z,21.72
2022-08-02T09:27:18.711Z,21.77
2022-08-02T09:30:13.422Z,21.92
2022-08-02T09:32:48.384Z,22.01
2022-08-02T09:36:05.155Z,21.91
2022-08-02T09:38:21.297Z,22.17
2022-08-02T09:40:47.706Z,22.15
2022-08-02T09:43:14.407Z,22.10
2022-08-02T09:45:40.862Z,22.01
2022-08-02T09:48:08.840Z,22.06
2022-08-02T09:50:41.032Z,22.08
2022-08-02T09:53:13.998Z,22.33
2022-08-02T09:55:41.953Z,22.43
2022-08-02T09:58:19.748Z,22.57
2022-08-02T10:00:58.897Z,22.74
2022-08-02T10:03:31.092Z,22.80
2022-08-02T10:06:03.291Z,22.99
2022-08-02T10:08:32.982Z,23.16
2022-08-02T10:11:01.036Z,23.21
2022-08-02T10:13:32.801Z,23.04
2022-08-02T10:15:59.795Z,23.05
2022-08-02T10:18:38.799Z,23.09
2022-08-02T10:21:12.889Z,22.99
2022-08-02T10:23:42.374Z,23.04
2022-08-02T10:26:10.658Z,23.07
2022-08-02T10:28:38.616Z,23.11
2022-08-02T10:31:06.270Z,23.17
2022-08-02T10:33:36.350Z,23.10
2022-08-02T10:36:07.182Z,23.22
2022-08-02T10:38:35.403Z,23.31
2022-08-02T10:41:01.917Z,23.46
2022-08-02T10:43:31.391Z,23.57
2022-08-02T10:46:35.752Z,23.66
2022-08-02T10:52:00.382Z,23.59
2022-08-02T10:54:36.730Z,23.55
2022-08-02T10:57:15.377Z,23.65
2022-08-02T10:59:42.139Z,23.98
2022-08-02T11:02:08.868Z,24.04
2022-08-02T11:04:41.304Z,23.88
2022-08-02T11:07:19.558Z,23.95
2022-08-02T11:09:47.862Z,24.11
2022-08-02T11:12:19.559Z,24.23
2022-08-02T11:14:59.668Z,24.24
2022-08-02T11:17:28.937Z,24.11
2022-08-02T11:20:10.586Z,24.01
2022-08-02T11:22:37.301Z,24.27
2022-08-02T11:25:21.877Z,24.26
2022-08-02T11:27:52.589Z,24.23
2022-08-02T11:30:20.512Z,24.21
2022-08-02T11:32:57.762Z,24.17
2022-08-02T11:35:32.533Z,24.01
2022-08-02T11:38:12.387Z,24.10
2022-08-02T11:40:38.914Z,24.17
2022-08-02T11:43:16.752Z,24.22
2022-08-02T11:45:43.226Z,24.32
2022-08-02T11:48:09.707Z,24.20
2022-08-02T11:50:36.212Z,24.23
2022-08-02T11:53:12.705Z,24.35
2022-08-02T11:55:39.105Z,24.40
2022-08-02T11:58:07.780Z,24.45
2022-08-02T12:00:34.243Z,24.47
2022-08-02T12:03:01.496Z,24.38
2022-08-02T12:06:02.878Z,24.38
2022-08-02T12:08:14.914Z,24.47
2022-08-02T12:10:49.740Z,24.53
2022-08-02T12:13:16.296Z,24.71
2022-08-02T12:15:45.378Z,24.63
2022-08-02T12:18:33.696Z,24.67
2022-08-02T12:21:00.698Z,24.73
2022-08-02T12:23:27.593Z,24.74
2022-08-02T12:26:20.730Z,24.73
2022-08-02T12:28:47.201Z,24.79
2022-08-02T12:31:14.278Z,24.78
2022-08-02T12:33:52.084Z,24.77
2022-08-02T12:36:27.850Z,24.97
2022-08-02T12:38:59.489Z,25.06
2022-08-02T12:41:30.899Z,25.09
2022-08-02T12:43:59.580Z,24.98
2022-08-02T12:46:26.137Z,24.91
2022-08-02T12:49:15.909Z,25.04
2022-08-02T12:51:50.808Z,25.05
2022-08-02T12:54:31.101Z,25.07
2022-08-02T12:57:10.848Z,25.23
2022-08-02T12:59:40.108Z,25.03
2022-08-02T13:02:10.809Z,24.92
2022-08-02T13:04:38.384Z,24.86
2022-08-02T13:07:05.171Z,24.90
2022-08-02T13:09:42.550Z,24.92
2022-08-02T13:12:10.234Z,24.83
2022-08-02T13:14:41.030Z,24.93
2022-08-02T13:17:08.984Z,25.10
2022-08-02T13:19:36.836Z,25.09
2022-08-02T13:22:04.269Z,25.08
2022-08-02T13:24:39.834Z,25.23
2022-08-02T13:27:20.988Z,25.30
2022-08-02T13:29:49.161Z,25.20
2022-08-02T13:32:16.668Z,25.25
2022-08-02T13:34:43.548Z,25.26
2022-08-02T13:37:10.407Z,25.15
2022-08-02T13:39:36.902Z,25.05
2022-08-02T13:42:03.481Z,25.05
2022-08-02T13:44:30.058Z,25.06
2022-08-02T13:46:56.824Z,25.11
2022-08-02T13:49:50.912Z,25.18
2022-08-02T13:52:11.500Z,25.29
2022-08-02T13:54:39.324Z,25.31
2022-08-02T13:57:05.774Z,25.18
2022-08-02T13:59:55.894Z,25.02
2022-08-02T14:02:18.827Z,25.02
2022-08-02T14:04:45.311Z,25.03
2022-08-02T14:07:11.844Z,25.01
2022-08-02T14:09:38.638Z,25.02
2022-08-02T14:12:07.364Z,24.96
2022-08-02T14:14:33.785Z,25.00
2022-08-02T14:17:01.806Z,25.03
2022-08-02T14:19:28.448Z,24.98
2022-08-02T14:21:54.957Z,24.91
2022-08-02T14:24:38.446Z,24.88
2022-08-02T14:27:04.898Z,24.88
2022-08-02T14:29:31.356Z,24.84
2022-08-02T14:31:57.764Z,24.84
2022-08-02T14:34:24.299Z,24.80
2022-08-02T14:36:53.853Z,24.82
2022-08-02T14:39:21.013Z,24.85
2022-08-02T14:41:59.345Z,24.90
2022-08-02T14:44:26.868Z,24.97
2022-08-02T14:46:53.623Z,24.97
2022-08-02T14:49:25.579Z,24.98
2022-08-02T14:51:54.361Z,24.99
2022-08-02T14:54:20.945Z,24.99
2022-08-02T14:56:56.866Z,24.99
2022-08-02T14:59:23.305Z,24.97
2022-08-02T15:01:49.836Z,24.94
2022-08-02T15:04:16.357Z,25.02
2022-08-02T15:06:42.841Z,25.08
2022-08-02T15:09:09.290Z,25.29
2022-08-02T15:11:47.640Z,25.55
2022-08-02T15:14:15.152Z,25.88
2022-08-02T15:16:56.082Z,25.86
2022-08-02T15:19:23.880Z,25.56
2022-08-02T15:21:54.571Z,25.32
2022-08-02T15:24:23.373Z,25.18
2022-08-02T15:26:50.742Z,25.02
2022-08-02T15:29:18.566Z,24.95
2022-08-02T15:31:45.148Z,24.88
2022-08-02T15:34:11.647Z,24.86
2022-08-02T15:36:40.926Z,24.80
2022-08-02T15:39:07.686Z,24.80
2022-08-02T15:41:36.658Z,24.82
2022-08-02T15:44:03.187Z,24.80
2022-08-02T15:46:35.714Z,24.81
2022-08-02T15:49:02.230Z,24.82
2022-08-02T15:51:28.652Z,24.79
2022-08-02T15:53:55.094Z,24.75
2022-08-02T15:56:23.986Z,24.71
2022-08-02T15:58:51.791Z,24.71
2022-08-02T16:01:23.978Z,24.73
2022-08-02T16:03:50.626Z,24.67
2022-08-02T16:06:17.389Z,24.69
2022-08-02T16:08:54.671Z,24.67
2022-08-02T16:11:22.327Z,24.67
2022-08-02T16:13:55.170Z,24.65
2022-08-02T16:16:24.233Z,24.57
2022-08-02T16:18:50.983Z,24.51
2022-08-02T16:21:17.533Z,24.50
2022-08-02T16:24:01.478Z,24.49
2022-08-02T16:26:31.502Z,24.50
2022-08-02T16:28:59.273Z,24.42
2022-08-02T16:31:25.696Z,24.37
2022-08-02T16:33:55.888Z,24.41
2022-08-02T16:36:24.240Z,24.48
2022-08-02T16:38:50.802Z,24.45
2022-08-02T16:41:17.278Z,24.30
2022-08-02T16:43:43.753Z,24.38
2022-08-02T16:46:11.148Z,24.41
2022-08-02T16:48:37.687Z,24.42
2022-08-02T16:51:04.700Z,24.55
2022-08-02T16:54:00.036Z,24.47
2022-08-02T16:56:30.706Z,24.27
2022-08-02T16:58:59.679Z,24.29
2022-08-02T17:02:03.230Z,24.22
2022-08-02T17:04:14.307Z,24.26
2022-08-02T17:06:47.804Z,24.27
2022-08-02T17:10:03.640Z,24.19
2022-08-02T17:12:05.274Z,24.17
2022-08-02T17:14:36.598Z,24.22
2022-08-02T17:17:21.457Z,24.15
2022-08-02T17:19:48.033Z,24.01
2022-08-02T17:22:15.297Z,24.00
2022-08-02T17:24:44.321Z,24.05
2022-08-02T17:27:17.108Z,23.91
2022-08-02T17:29:43.696Z,23.87
2022-08-02T17:32:12.940Z,23.86
2022-08-02T17:34:39.535Z,23.95
2022-08-02T17:37:15.504Z,23.90
2022-08-02T17:39:43.853Z,23.91
2022-08-02T17:42:19.617Z,23.85
2022-08-02T17:44:49.221Z,23.74
2022-08-02T17:47:16.033Z,23.64
2022-08-02T17:49:48.511Z,23.53
2022-08-02T17:52:52.417Z,23.56
2022-08-02T17:55:05.900Z,23.50
2022-08-02T17:57:56.060Z,23.50
2022-08-02T18:00:19.503Z,23.52
2022-08-02T18:02:53.010Z,23.37
2022-08-02T18:05:39.356Z,23.38
2022-08-02T18:08:07.275Z,23.38
2022-08-02T18:10:33.878Z,23.27
2022-08-02T18:13:00.339Z,23.37
2022-08-02T18:15:27.366Z,23.33
2022-08-02T18:17:54.954Z,23.33
2022-08-02T18:20:23.579Z,23.37
2022-08-02T18:22:55.563Z,23.30
2022-08-02T18:25:37.908Z,23.24
2022-08-02T18:28:11.183Z,23.29
2022-08-02T18:30:37.671Z,23.16
2022-08-02T18:33:58.192Z,23.23
2022-08-02T18:35:52.464Z,23.09
2022-08-02T18:38:21.989Z,23.13
2022-08-02T18:40:50.704Z,23.06
2022-08-02T18:43:19.980Z,22.94
2022-08-02T18:48:46.802Z,22.85
2022-08-02T18:51:15.027Z,22.89
2022-08-02T18:53:42.884Z,22.71
2022-08-02T18:58:59.323Z,22.70
2022-08-02T19:01:32.367Z,22.52
2022-08-02T19:04:01.413Z,22.40
2022-08-02T19:06:29.108Z,22.48
2022-08-02T19:08:59.716Z,22.52
2022-08-02T19:11:41.010Z,22.32
2022-08-02T19:14:08.061Z,22.15
2022-08-02T19:16:37.267Z,22.16
2022-08-02T19:19:05.579Z,22.27
2022-08-02T19:22:17.881Z,22.28
2022-08-02T19:24:19.070Z,22.28
2022-08-02T19:26:51.893Z,22.34
2022-08-02T19:29:42.412Z,22.38
2022-08-02T19:32:40.613Z,22.20
2022-08-02T19:34:53.031Z,22.09
2022-08-02T19:37:19.544Z,22.04
2022-08-02T19:39:46.160Z,21.91
2022-08-02T19:42:14.562Z,21.88
2022-08-02T19:44:45.051Z,21.84
2022-08-02T19:47:12.417Z,21.86
2022-08-02T19:49:45.740Z,21.97
2022-08-02T19:52:21.310Z,22.00
2022-08-02T19:54:54.414Z,22.15
2022-08-02T19:57:23.469Z,22.07
2022-08-02T19:59:52.783Z,22.05
2022-08-02T20:02:20.803Z,22.01
2022-08-02T20:04:50.206Z,22.05
2022-08-02T20:07:49.861Z,22.06
2022-08-02T20:10:10.972Z,21.92
2022-08-02T20:12:41.109Z,22.00
2022-08-02T20:15:14.952Z,22.03
2022-08-02T20:17:47.199Z,21.91
2022-08-02T20:20:14.865Z,21.89
2022-08-02T20:22:59.915Z,21.91
2022-08-02T20:25:26.478Z,21.90
2022-08-02T20:27:55.663Z,21.76
2022-08-02T20:30:25.512Z,21.80
2022-08-02T20:32:58.905Z,21.76
2022-08-02T20:35:41.261Z,21.71
2022-08-02T20:38:09.566Z,21.70
2022-08-02T20:40:38.820Z,21.74
2022-08-02T20:43:05.444Z,21.74
2022-08-02T20:45:34.396Z,21.84
2022-08-02T20:48:00.911Z,21.99
2022-08-02T20:50:46.669Z,21.90
2022-08-02T20:53:23.699Z,21.93
2022-08-02T20:55:54.058Z,21.86
2022-08-02T20:58:26.671Z,21.68
2022-08-02T21:00:58.577Z,21.50
2022-08-02T21:03:25.488Z,21.68
2022-08-02T21:06:06.346Z,21.77
2022-08-02T21:08:34.484Z,21.79
2022-08-02T21:11:01.349Z,21.75
2022-08-02T21:13:46.298Z,21.77
2022-08-02T21:16:18.253Z,21.84
2022-08-02T21:18:46.004Z,21.93
2022-08-02T21:21:14.644Z,21.77
2022-08-02T21:23:48.601Z,21.73
2022-08-02T21:26:28.267Z,21.57
2022-08-02T21:28:55.589Z,21.59
2022-08-02T21:31:22.104Z,21.52
2022-08-02T21:33:58.221Z,21.47
2022-08-02T21:36:34.034Z,21.36
2022-08-02T21:41:53.129Z,21.32
2022-08-02T21:44:22.357Z,21.23
2022-08-02T21:46:54.643Z,21.20
2022-08-02T21:49:40.792Z,21.31
2022-08-02T21:52:10.198Z,21.43
2022-08-02T21:54:40.076Z,21.54
2022-08-02T21:57:11.249Z,21.49
2022-08-02T21:59:45.399Z,21.44
2022-08-02T22:02:12.378Z,21.56
2022-08-02T22:04:38.882Z,21.37
2022-08-02T22:07:05.382Z,21.30
2022-08-02T22:09:43.287Z,21.41
2022-08-02T22:12:17.526Z,21.42
2022-08-02T22:14:49.732Z,21.24
2022-08-02T22:17:53.180Z,21.17
2022-08-02T22:20:12.303Z,21.19
2022-08-02T22:22:58.399Z,21.20
2022-08-02T22:25:31.470Z,21.14
2022-08-02T22:28:37.185Z,21.05
2022-08-02T22:30:53.155Z,21.09
2022-08-02T22:33:42.341Z,21.00
2022-08-02T22:36:28.297Z,20.97
2022-08-02T22:38:55.199Z,21.01
2022-08-02T22:41:22.451Z,20.95
2022-08-02T22:43:49.476Z,20.93
2022-08-02T22:46:16.923Z,21.05
2022-08-02T22:48:44.299Z,20.93
2022-08-02T22:51:13.452Z,20.87
2022-08-02T22:53:40.732Z,20.86
2022-08-02T22:56:07.658Z,20.86
2022-08-02T22:59:00.438Z,22.79
2022-08-02T22:59:00.572Z,22.64
2022-08-02T22:59:05.947Z,20.79
2022-08-02T22:59:12.947Z,21.35
2022-08-02T23:01:21.467Z,20.90
2022-08-02T23:03:47.977Z,20.92
2022-08-02T23:06:17.455Z,20.94
2022-08-02T23:08:43.982Z,20.90
2022-08-02T23:11:10.419Z,20.85
2022-08-02T23:13:36.834Z,20.83
2022-08-02T23:16:21.896Z,20.78
2022-08-02T23:19:06.797Z,20.72
2022-08-02T23:22:02.061Z,20.71
2022-08-02T23:24:21.212Z,20.86
2022-08-02T23:26:47.672Z,20.89
2022-08-02T23:29:14.084Z,20.83
2022-08-02T23:31:40.742Z,20.68
2022-08-02T23:34:08.080Z,20.57
2022-08-02T23:36:40.425Z,20.51
2022-08-02T23:39:07.240Z,20.42
2022-08-02T23:41:34.607Z,20.46
2022-08-02T23:44:13.649Z,20.39
2022-08-02T23:46:46.562Z,20.40
2022-08-02T23:49:14.019Z,20.36
2022-08-02T23:51:40.426Z,20.23
2022-08-02T23:54:07.061Z,20.19
2022-08-02T23:56:33.513Z,20.13
2022-08-02T23:58:59.910Z,20.08
